createdAt,value
2023-02-14T00:00:46.779Z,4.80
2023-02-14T00:03:15.020Z,4.95
2023-02-14T00:05:42.136Z,4.38
2023-02-14T00:08:09.221Z,4.22
2023-02-14T00:10:36.377Z,3.97
2023-02-14T00:13:03.541Z,4.18
2023-02-14T00:15:30.638Z,4.93
2023-02-14T00:18:02.180Z,3.70
2023-02-14T00:20:29.374Z,4.10
2023-02-14T00:22:56.475Z,4.68
2023-02-14T00:25:23.638Z,4.97
2023-02-14T00:27:51.641Z,4.50
2023-02-14T00:30:18.776Z,4.30
2023-02-14T00:32:46.053Z,4.00
2023-02-14T00:35:13.147Z,4.30
2023-02-14T00:37:40.298Z,3.83
2023-02-14T00:40:07.817Z,4.70
2023-02-14T00:42:35.066Z,4.50
2023-02-14T00:45:02.174Z,3.85
2023-02-14T00:47:29.346Z,4.13
2023-02-14T00:49:56.536Z,4.18
2023-02-14T00:52:23.640Z,4.00
2023-02-14T00:54:50.894Z,3.60
2023-02-14T00:57:17.978Z,4.07
2023-02-14T00:59:45.103Z,3.70
2023-02-14T01:02:12.307Z,3.78
2023-02-14T01:04:39.477Z,4.00
2023-02-14T01:07:06.612Z,4.07
2023-02-14T01:09:33.810Z,4.22
2023-02-14T01:12:00.885Z,2.80
2023-02-14T01:14:27.964Z,3.75
2023-02-14T01:16:55.238Z,2.50
2023-02-14T01:19:22.385Z,2.92
2023-02-14T01:21:49.481Z,4.25
2023-02-14T01:24:16.663Z,4.15
2023-02-14T01:26:43.770Z,3.85
2023-02-14T01:29:10.885Z,4.13
2023-02-14T01:31:39.486Z,3.95
2023-02-14T01:34:06.692Z,4.18
2023-02-14T01:36:35.934Z,4.75
2023-02-14T01:39:04.891Z,4.03
2023-02-14T01:41:33.267Z,4.38
2023-02-14T01:44:05.096Z,4.68
2023-02-14T01:46:33.587Z,4.15
2023-02-14T01:49:03.629Z,3.95
2023-02-14T01:51:30.987Z,4.40
2023-02-14T01:53:58.513Z,4.38
2023-02-14T01:56:28.243Z,4.32
2023-02-14T01:58:56.938Z,4.78
2023-02-14T02:01:24.611Z,4.55
2023-02-14T02:03:56.349Z,4.07
2023-02-14T02:06:26.565Z,3.80
2023-02-14T02:09:01.629Z,4.68
2023-02-14T02:11:28.937Z,4.47
2023-02-14T02:13:56.100Z,4.80
2023-02-14T02:16:30.578Z,3.97
2023-02-14T02:19:05.404Z,4.30
2023-02-14T02:21:50.849Z,4.53
2023-02-14T02:24:17.985Z,4.25
2023-02-14T02:27:03.838Z,3.83
2023-02-14T02:29:30.925Z,4.72
2023-02-14T02:32:13.725Z,4.13
2023-02-14T02:34:59.450Z,3.95
2023-02-14T02:37:45.443Z,3.60
2023-02-14T02:40:38.304Z,3.88
2023-02-14T02:43:05.399Z,4.32
2023-02-14T02:45:32.463Z,4.68
2023-02-14T02:48:07.276Z,3.85
2023-02-14T02:50:56.020Z,3.75
2023-02-14T02:53:44.483Z,3.80
2023-02-14T02:56:39.352Z,4.20
2023-02-14T02:59:18.287Z,4.57
2023-02-14T03:01:54.930Z,4.93
2023-02-14T03:04:41.203Z,3.65
2023-02-14T03:07:26.904Z,3.83
2023-02-14T03:09:57.638Z,3.15
2023-02-14T03:12:34.108Z,4.63
2023-02-14T03:15:10.460Z,4.10
2023-02-14T03:17:43.894Z,4.18
2023-02-14T03:20:13.985Z,4.13
2023-02-14T03:22:49.484Z,4.13
2023-02-14T03:25:35.151Z,3.50
2023-02-14T03:28:08.534Z,4.78
2023-02-14T03:30:48.101Z,3.95
2023-02-14T03:33:19.559Z,4.18
2023-02-14T03:36:01.954Z,4.75
2023-02-14T03:38:50.732Z,4.15
2023-02-14T03:41:22.051Z,4.03
2023-02-14T03:46:39.601Z,4.30
2023-02-14T03:49:10.276Z,4.03
2023-02-14T03:51:38.371Z,3.85
2023-02-14T03:54:07.710Z,4.07
2023-02-14T03:56:49.064Z,3.70
2023-02-14T03:59:17.542Z,3.97
2023-02-14T04:01:47.782Z,3.35
2023-02-14T04:04:16.206Z,1.83
2023-02-14T04:06:43.354Z,3.88
2023-02-14T04:09:10.463Z,3.20
2023-02-14T04:11:38.556Z,3.38
2023-02-14T04:14:06.205Z,3.05
2023-02-14T04:16:56.344Z,3.58
2023-02-14T04:19:24.172Z,2.83
2023-02-14T04:21:52.605Z,3.38
2023-02-14T04:24:20.119Z,3.45
2023-02-14T04:27:06.078Z,3.55
2023-02-14T04:29:33.166Z,3.53
2023-02-14T04:32:00.424Z,3.20
2023-02-14T04:34:27.708Z,3.25
2023-02-14T04:36:54.861Z,2.60
2023-02-14T04:39:22.016Z,2.83
2023-02-14T04:41:49.144Z,2.78
2023-02-14T04:44:16.268Z,2.78
2023-02-14T04:46:43.425Z,2.85
2023-02-14T04:49:10.632Z,2.75
2023-02-14T04:51:37.702Z,2.88
2023-02-14T04:54:04.830Z,2.88
2023-02-14T04:56:32.007Z,3.13
2023-02-14T04:58:59.120Z,4.05
2023-02-14T05:01:26.259Z,3.03
2023-02-14T05:03:53.500Z,3.10
2023-02-14T05:06:20.646Z,2.80
2023-02-14T05:08:47.756Z,3.30
2023-02-14T05:11:15.422Z,2.72
2023-02-14T05:13:42.624Z,2.53
2023-02-14T05:16:09.772Z,3.00
2023-02-14T05:18:36.945Z,3.13
2023-02-14T05:21:04.151Z,4.05
2023-02-14T05:23:31.298Z,3.40
2023-02-14T05:25:58.553Z,3.75
2023-02-14T05:28:25.690Z,3.80
2023-02-14T05:30:53.145Z,4.10
2023-02-14T05:33:20.329Z,3.00
2023-02-14T05:35:47.509Z,3.92
2023-02-14T05:38:14.862Z,3.67
2023-02-14T05:40:43.284Z,3.80
2023-02-14T05:43:10.460Z,3.83
2023-02-14T05:45:37.803Z,3.85
2023-02-14T05:48:06.205Z,3.15
2023-02-14T05:50:33.551Z,3.47
2023-02-14T05:53:01.420Z,3.78
2023-02-14T05:55:28.676Z,3.78
2023-02-14T05:57:55.886Z,3.20
2023-02-14T06:00:24.389Z,2.80
2023-02-14T06:02:52.078Z,2.90
2023-02-14T06:05:20.145Z,2.80
2023-02-14T06:07:50.772Z,2.50
2023-02-14T06:10:18.653Z,3.70
2023-02-14T06:12:46.262Z,3.30
2023-02-14T06:15:13.422Z,2.85
2023-02-14T06:17:40.699Z,3.10
2023-02-14T06:20:09.759Z,3.05
2023-02-14T06:22:37.739Z,2.70
2023-02-14T06:25:05.486Z,3.03
2023-02-14T06:27:32.849Z,3.22
2023-02-14T06:30:00.134Z,3.17
2023-02-14T06:32:27.389Z,3.65
2023-02-14T06:34:54.472Z,3.38
2023-02-14T06:37:21.656Z,3.10
2023-02-14T06:39:48.824Z,2.75
2023-02-14T06:42:15.929Z,2.90
2023-02-14T06:44:43.025Z,2.88
2023-02-14T06:47:10.207Z,3.42
2023-02-14T06:49:37.376Z,2.88
2023-02-14T06:52:05.531Z,2.85
2023-02-14T06:54:32.750Z,2.83
2023-02-14T06:56:59.831Z,2.88
2023-02-14T06:59:26.982Z,2.90
2023-02-14T07:01:54.232Z,2.70
2023-02-14T07:04:21.456Z,2.95
2023-02-14T07:06:48.620Z,2.25
2023-02-14T07:09:18.718Z,2.88
2023-02-14T07:11:46.275Z,2.97
2023-02-14T07:14:13.792Z,3.00
2023-02-14T07:16:40.967Z,3.30
2023-02-14T07:19:08.092Z,2.00
2023-02-14T07:21:35.229Z,3.30
2023-02-14T07:24:02.360Z,2.38
2023-02-14T07:26:29.464Z,2.35
2023-02-14T07:28:56.582Z,2.20
2023-02-14T07:31:23.915Z,1.90
2023-02-14T07:33:51.582Z,1.98
2023-02-14T07:36:18.890Z,1.20
2023-02-14T07:38:46.064Z,1.73
2023-02-14T07:41:13.459Z,2.13
2023-02-14T07:43:40.619Z,2.10
2023-02-14T07:46:08.596Z,2.08
2023-02-14T07:48:35.732Z,2.50
2023-02-14T07:51:03.521Z,2.08
2023-02-14T07:53:30.879Z,2.00
2023-02-14T07:55:57.992Z,1.98
2023-02-14T07:58:25.161Z,2.08
2023-02-14T08:00:52.605Z,1.80
2023-02-14T08:03:19.709Z,2.03
2023-02-14T08:05:57.120Z,1.83
2023-02-14T08:08:28.150Z,1.67
2023-02-14T08:10:55.540Z,1.60
2023-02-14T08:13:22.938Z,1.67
2023-02-14T08:16:19.677Z,1.70
2023-02-14T08:18:46.846Z,2.05
2023-02-14T08:21:15.803Z,2.03
2023-02-14T08:23:42.939Z,1.80
2023-02-14T08:26:10.097Z,1.85
2023-02-14T08:28:37.167Z,2.05
2023-02-14T08:31:04.901Z,1.88
2023-02-14T08:33:32.197Z,2.40
2023-02-14T08:35:59.276Z,1.65
2023-02-14T08:38:26.372Z,2.00
2023-02-14T08:40:53.563Z,1.80
2023-02-14T08:43:20.670Z,1.70
2023-02-14T08:45:49.616Z,1.80
2023-02-14T08:48:17.001Z,1.73
2023-02-14T08:50:44.094Z,2.10
2023-02-14T08:53:12.197Z,2.38
2023-02-14T08:55:40.195Z,1.98
2023-02-14T08:58:07.464Z,2.00
2023-02-14T09:00:35.844Z,1.30
2023-02-14T09:03:03.094Z,2.53
2023-02-14T09:05:30.246Z,2.08
2023-02-14T09:07:57.508Z,1.98
2023-02-14T09:10:25.373Z,1.95
2023-02-14T09:12:52.855Z,1.80
2023-02-14T09:15:20.100Z,1.80
2023-02-14T09:17:47.390Z,1.90
2023-02-14T09:20:16.186Z,2.00
2023-02-14T09:22:43.618Z,1.45
2023-02-14T09:25:10.931Z,2.15
2023-02-14T09:27:38.405Z,1.70
2023-02-14T09:30:09.380Z,2.15
2023-02-14T09:32:36.583Z,2.20
2023-02-14T09:35:03.789Z,1.77
2023-02-14T09:37:30.949Z,1.90
2023-02-14T09:39:58.115Z,2.13
2023-02-14T09:42:28.233Z,1.92
2023-02-14T09:44:58.717Z,2.10
2023-02-14T09:47:46.142Z,2.17
2023-02-14T09:50:19.616Z,1.60
2023-02-14T09:52:51.913Z,1.88
2023-02-14T09:55:19.216Z,2.00
2023-02-14T09:58:00.433Z,1.80
2023-02-14T10:00:35.283Z,2.20
2023-02-14T10:03:21.253Z,2.22
2023-02-14T10:05:53.606Z,1.63
2023-02-14T10:08:39.720Z,1.95
2023-02-14T10:11:09.552Z,1.80
2023-02-14T10:13:58.368Z,2.58
2023-02-14T10:16:40.535Z,2.38
2023-02-14T10:19:25.225Z,2.00
2023-02-14T10:21:54.219Z,1.83
2023-02-14T10:24:28.183Z,1.90
2023-02-14T10:29:44.917Z,2.00
2023-02-14T10:32:14.857Z,1.90
2023-02-14T10:34:49.340Z,1.60
2023-02-14T10:37:33.305Z,1.38
2023-02-14T10:40:12.608Z,1.27
2023-02-14T10:43:02.908Z,1.60
2023-02-14T10:45:46.186Z,1.70
2023-02-14T10:48:19.301Z,1.50
2023-02-14T10:50:53.689Z,2.08
2023-02-14T10:53:25.826Z,1.73
2023-02-14T10:55:55.030Z,1.13
2023-02-14T10:58:23.619Z,1.00
2023-02-14T11:01:08.928Z,1.30
2023-02-14T11:03:37.770Z,1.40
2023-02-14T11:06:04.967Z,1.20
2023-02-14T11:08:35.999Z,1.42
2023-02-14T11:11:14.714Z,1.30
2023-02-14T11:13:42.762Z,1.80
2023-02-14T11:16:12.131Z,1.90
2023-02-14T11:18:40.876Z,1.85
2023-02-14T11:21:08.099Z,1.83
2023-02-14T11:23:36.529Z,1.40
2023-02-14T11:26:04.448Z,1.40
2023-02-14T11:28:31.763Z,1.30
2023-02-14T11:30:59.280Z,1.33
2023-02-14T11:33:44.176Z,1.70
2023-02-14T11:36:15.219Z,1.55
2023-02-14T11:38:42.947Z,1.80
2023-02-14T11:41:11.715Z,1.73
2023-02-14T11:43:40.021Z,1.30
2023-02-14T11:46:24.025Z,1.63
2023-02-14T11:48:56.405Z,1.40
2023-02-14T11:51:28.557Z,1.38
2023-02-14T11:53:57.032Z,1.25
2023-02-14T11:56:24.600Z,1.08
2023-02-14T11:58:55.210Z,1.08
2023-02-14T12:01:42.565Z,1.48
2023-02-14T12:04:15.995Z,1.10
2023-02-14T12:06:44.430Z,1.42
2023-02-14T12:09:14.608Z,1.90
2023-02-14T12:11:41.917Z,1.50
2023-02-14T12:14:20.698Z,1.40
2023-02-14T12:16:52.860Z,1.50
2023-02-14T12:19:33.026Z,1.10
2023-02-14T12:22:07.223Z,1.80
2023-02-14T12:24:39.108Z,1.20
2023-02-14T12:27:25.194Z,1.40
2023-02-14T12:29:52.616Z,1.67
2023-02-14T12:32:24.086Z,1.73
2023-02-14T12:34:51.901Z,1.40
2023-02-14T12:37:35.173Z,1.10
2023-02-14T12:40:05.309Z,1.25
2023-02-14T12:42:50.622Z,1.10
2023-02-14T12:45:29.737Z,1.20
2023-02-14T12:48:16.356Z,1.35
2023-02-14T12:51:02.991Z,1.45
2023-02-14T12:53:39.294Z,1.38
2023-02-14T12:56:06.677Z,1.10
2023-02-14T12:58:52.288Z,1.27
2023-02-14T13:01:39.451Z,1.20
2023-02-14T13:04:32.617Z,1.02
2023-02-14T13:07:05.680Z,1.30
2023-02-14T13:09:32.738Z,1.20
2023-02-14T13:12:02.685Z,1.10
2023-02-14T13:14:29.814Z,1.00
2023-02-14T13:16:59.702Z,1.30
2023-02-14T13:19:38.000Z,1.02
2023-02-14T13:22:06.060Z,1.20
2023-02-14T13:24:40.098Z,2.72
2023-02-14T13:27:10.741Z,1.75
2023-02-14T13:29:42.537Z,1.20
2023-02-14T13:32:12.533Z,0.90
2023-02-14T13:34:42.359Z,1.20
2023-02-14T13:37:11.849Z,1.40
2023-02-14T13:39:43.573Z,1.90
2023-02-14T13:42:10.916Z,1.20
2023-02-14T13:44:38.050Z,1.40
2023-02-14T13:47:06.321Z,1.35
2023-02-14T13:49:34.735Z,1.15
2023-02-14T13:52:04.304Z,1.00
2023-02-14T13:54:35.810Z,1.20
2023-02-14T13:57:04.607Z,1.25
2023-02-14T13:59:33.646Z,1.02
2023-02-14T14:02:19.642Z,1.20
2023-02-14T14:04:46.728Z,0.98
2023-02-14T14:07:14.396Z,1.23
2023-02-14T14:09:44.880Z,1.08
2023-02-14T14:12:27.304Z,1.10
2023-02-14T14:15:06.965Z,0.98
2023-02-14T14:17:38.555Z,1.40
2023-02-14T14:20:29.337Z,1.55
2023-02-14T14:22:57.551Z,2.50
2023-02-14T14:25:31.977Z,2.40
2023-02-14T14:27:59.338Z,1.20
2023-02-14T14:30:32.942Z,1.00
2023-02-14T14:33:15.314Z,1.30
2023-02-14T14:35:52.783Z,1.10
2023-02-14T14:38:19.921Z,1.10
2023-02-14T14:40:47.970Z,0.77
2023-02-14T14:43:33.979Z,1.00
2023-02-14T14:46:02.492Z,0.70
2023-02-14T14:48:35.554Z,1.20
2023-02-14T14:51:04.451Z,0.70
2023-02-14T14:53:47.157Z,0.77
2023-02-14T14:56:14.660Z,0.98
2023-02-14T14:58:42.491Z,0.77
2023-02-14T15:01:21.184Z,0.93
2023-02-14T15:03:48.381Z,1.10
2023-02-14T15:06:17.733Z,1.20
2023-02-14T15:08:45.427Z,1.30
2023-02-14T15:11:40.243Z,0.90
2023-02-14T15:14:09.373Z,1.48
2023-02-14T15:16:47.738Z,1.42
2023-02-14T15:19:21.462Z,1.13
2023-02-14T15:21:48.948Z,1.30
2023-02-14T15:24:17.974Z,1.55
2023-02-14T15:26:46.115Z,1.70
2023-02-14T15:29:21.053Z,1.48
2023-02-14T15:31:48.380Z,1.48
2023-02-14T15:34:15.522Z,1.75
2023-02-14T15:36:49.076Z,1.52
2023-02-14T15:39:17.258Z,1.50
2023-02-14T15:41:45.271Z,1.90
2023-02-14T15:44:22.612Z,1.60
2023-02-14T15:46:54.700Z,1.50
2023-02-14T15:49:23.756Z,1.80
2023-02-14T15:51:51.189Z,1.42
2023-02-14T15:54:44.601Z,2.42
2023-02-14T15:57:20.301Z,1.40
2023-02-14T15:59:48.679Z,1.42
2023-02-14T16:02:36.207Z,1.40
2023-02-14T16:05:17.592Z,1.50
2023-02-14T16:10:22.561Z,1.60
2023-02-14T16:13:02.095Z,1.15
2023-02-14T16:15:31.885Z,1.20
2023-02-14T16:17:59.727Z,1.33
2023-02-14T16:20:29.048Z,1.20
2023-02-14T16:23:25.568Z,1.10
2023-02-14T16:25:53.127Z,1.05
2023-02-14T16:28:20.899Z,1.20
2023-02-14T16:30:49.466Z,1.30
2023-02-14T16:33:20.065Z,1.40
2023-02-14T16:35:48.105Z,1.50
2023-02-14T16:38:16.847Z,1.50
2023-02-14T16:40:45.790Z,1.20
2023-02-14T16:43:13.844Z,1.65
2023-02-14T16:45:41.345Z,1.33
2023-02-14T16:48:08.506Z,1.45
2023-02-14T16:50:37.386Z,1.70
2023-02-14T16:53:05.200Z,1.65
2023-02-14T16:55:32.400Z,1.58
2023-02-14T16:58:01.135Z,1.77
2023-02-14T17:00:28.463Z,2.05
2023-02-14T17:03:06.191Z,1.80
2023-02-14T17:05:34.986Z,1.63
2023-02-14T17:08:02.888Z,1.40
2023-02-14T17:10:30.510Z,1.50
2023-02-14T17:12:59.269Z,1.42
2023-02-14T17:15:26.876Z,1.55
2023-02-14T17:17:57.680Z,2.22
2023-02-14T17:20:24.928Z,1.48
2023-02-14T17:22:52.060Z,1.90
2023-02-14T17:25:19.312Z,1.63
2023-02-14T17:27:46.508Z,1.50
2023-02-14T17:30:14.735Z,1.60
2023-02-14T17:32:42.354Z,1.60
2023-02-14T17:35:09.704Z,1.50
2023-02-14T17:37:37.542Z,1.60
2023-02-14T17:40:05.937Z,1.60
2023-02-14T17:42:33.823Z,1.30
2023-02-14T17:45:01.034Z,1.80
2023-02-14T17:47:31.744Z,2.15
2023-02-14T17:49:58.995Z,2.05
2023-02-14T17:52:28.342Z,1.48
2023-02-14T17:54:55.436Z,1.70
2023-02-14T17:57:22.850Z,1.67
2023-02-14T17:59:51.169Z,1.75
2023-02-14T18:02:18.347Z,1.63
2023-02-14T18:04:45.574Z,2.00
2023-02-14T18:07:12.670Z,1.95
2023-02-14T18:09:39.774Z,1.92
2023-02-14T18:12:07.292Z,1.48
2023-02-14T18:14:34.674Z,2.05
2023-02-14T18:17:01.946Z,2.20
2023-02-14T18:19:29.391Z,1.70
2023-02-14T18:21:56.533Z,2.15
2023-02-14T18:24:23.728Z,2.80
2023-02-14T18:26:51.026Z,2.80
2023-02-14T18:29:18.487Z,2.22
2023-02-14T18:31:45.953Z,2.17
2023-02-14T18:34:13.285Z,1.88
2023-02-14T18:36:41.533Z,2.25
2023-02-14T18:39:09.607Z,1.70
2023-02-14T18:41:36.798Z,1.90
2023-02-14T18:44:05.845Z,2.22
2023-02-14T18:46:35.485Z,1.92
2023-02-14T18:49:03.912Z,1.92
2023-02-14T18:51:32.077Z,2.42
2023-02-14T18:54:00.103Z,2.90
2023-02-14T18:56:29.189Z,1.95
2023-02-14T18:59:01.124Z,1.90
2023-02-14T19:01:32.929Z,1.90
2023-02-14T19:04:01.197Z,1.90
2023-02-14T19:06:30.172Z,2.13
2023-02-14T19:08:57.554Z,1.70
2023-02-14T19:11:25.872Z,1.77
2023-02-14T19:13:54.328Z,1.40
2023-02-14T19:16:24.043Z,1.60
2023-02-14T19:18:53.389Z,1.20
2023-02-14T19:21:24.430Z,1.90
2023-02-14T19:23:53.037Z,1.20
2023-02-14T19:26:21.436Z,1.40
2023-02-14T19:28:50.446Z,2.08
2023-02-14T19:31:17.724Z,1.40
2023-02-14T19:33:45.779Z,1.33
2023-02-14T19:36:14.076Z,1.40
2023-02-14T19:38:42.184Z,1.27
2023-02-14T19:41:19.920Z,1.63
2023-02-14T19:43:47.754Z,1.25
2023-02-14T19:46:15.695Z,1.50
2023-02-14T19:48:44.599Z,2.03
2023-02-14T19:51:29.268Z,1.50
2023-02-14T19:53:57.158Z,1.60
2023-02-14T19:56:29.343Z,1.40
2023-02-14T19:58:56.949Z,1.42
2023-02-14T20:01:50.475Z,1.75
2023-02-14T20:04:21.595Z,1.35
2023-02-14T20:06:49.209Z,1.20
2023-02-14T20:09:16.774Z,1.48
2023-02-14T20:11:51.219Z,1.55
2023-02-14T20:14:19.856Z,1.40
2023-02-14T20:16:47.697Z,1.25
2023-02-14T20:19:19.165Z,1.33
2023-02-14T20:24:15.653Z,1.40
2023-02-14T20:26:43.358Z,1.52
2023-02-14T20:29:11.010Z,0.95
2023-02-14T20:31:41.017Z,0.90
2023-02-14T20:34:08.405Z,1.13
2023-02-14T20:36:35.545Z,1.08
2023-02-14T20:39:04.477Z,0.80
2023-02-14T20:41:34.523Z,1.20
2023-02-14T20:44:05.609Z,1.10
2023-02-14T20:46:33.061Z,1.15
2023-02-14T20:49:00.319Z,1.38
2023-02-14T20:51:28.019Z,1.48
2023-02-14T20:53:55.158Z,1.20
2023-02-14T20:56:23.553Z,1.20
2023-02-14T20:58:51.237Z,1.25
2023-02-14T21:01:20.018Z,1.25
2023-02-14T21:03:48.239Z,1.45
2023-02-14T21:06:15.939Z,1.65
2023-02-14T21:08:43.729Z,1.63
2023-02-14T21:11:15.122Z,1.55
2023-02-14T21:16:10.347Z,1.85
2023-02-14T21:18:38.091Z,1.90
2023-02-14T21:21:09.674Z,1.58
2023-02-14T21:23:36.792Z,1.60
2023-02-14T21:26:03.955Z,1.73
2023-02-14T21:28:31.037Z,1.50
2023-02-14T21:31:08.477Z,1.27
2023-02-14T21:33:36.158Z,1.65
2023-02-14T21:36:13.852Z,1.23
2023-02-14T21:38:40.972Z,1.60
2023-02-14T21:41:09.327Z,1.63
2023-02-14T21:43:37.823Z,1.65
2023-02-14T21:46:06.262Z,1.60
2023-02-14T21:48:52.628Z,1.63
2023-02-14T21:51:20.201Z,1.67
2023-02-14T21:53:47.518Z,1.70
2023-02-14T21:56:18.058Z,1.38
2023-02-14T21:58:45.304Z,1.50
2023-02-14T22:01:16.522Z,1.50
2023-02-14T22:06:10.700Z,1.20
2023-02-14T22:08:37.782Z,1.50
2023-02-14T22:11:06.297Z,1.45
2023-02-14T22:13:34.422Z,1.73
2023-02-14T22:16:05.988Z,1.40
2023-02-14T22:18:33.161Z,1.70
2023-02-14T22:21:01.246Z,0.98
2023-02-14T22:23:30.763Z,1.88
2023-02-14T22:25:58.331Z,1.45
2023-02-14T22:28:25.451Z,1.33
2023-02-14T22:30:52.625Z,1.42
2023-02-14T22:33:19.713Z,1.08
2023-02-14T22:35:47.369Z,0.98
2023-02-14T22:38:14.514Z,1.10
2023-02-14T22:40:43.308Z,1.20
2023-02-14T22:43:10.529Z,1.05
2023-02-14T22:45:37.646Z,1.05
2023-02-14T22:48:04.850Z,1.00
2023-02-14T22:50:33.960Z,1.05
2023-02-14T22:53:01.119Z,1.30
2023-02-14T22:55:28.215Z,0.82
2023-02-14T22:57:55.319Z,1.20
2023-02-14T23:00:22.561Z,0.80
2023-02-14T23:02:49.728Z,0.90
2023-02-14T23:05:17.065Z,0.98
2023-02-14T23:07:44.260Z,1.00
2023-02-14T23:10:11.517Z,0.82
2023-02-14T23:12:57.526Z,1.00
2023-02-14T23:15:43.555Z,1.17
2023-02-14T23:18:31.798Z,1.52
2023-02-14T23:21:17.795Z,1.60
2023-02-14T23:23:44.948Z,1.58
2023-02-14T23:26:12.387Z,1.90
2023-02-14T23:28:39.527Z,1.48
2023-02-14T23:31:07.199Z,1.50
2023-02-14T23:33:34.371Z,1.58
2023-02-14T23:36:04.838Z,1.30
2023-02-14T23:38:32.006Z,1.57
2023-02-14T23:41:17.914Z,1.65
2023-02-14T23:43:45.041Z,1.60
2023-02-14T23:46:12.205Z,1.77
2023-02-14T23:48:39.284Z,1.63
2023-02-14T23:51:06.418Z,1.50
2023-02-14T23:53:33.519Z,1.20
2023-02-14T23:56:01.703Z,1.35
2023-02-14T23:58:29.120Z,1.20
